EFSI/SJY METAR and TAF weather

Enter ICAO airport designator
Station Type Date Time Source
EFSI METAR 2019/02/23 23:20 UTC NOAA

EFSI 232320Z AUTO VRB02KT CAVOK 04/02 Q1021


Station Type Date Time Source
EFSI Decoded METAR 2019/02/23 23:20 UTC NOAA

Seinajoki-Ilmajok, Finland (EFSI) 62-41-37N 022-49-55E
Feb 23, 2019 - 06:20 PM EST / 2019.02.23 2320 UTC
Wind: Variable at 2 MPH (2 KT):0
Visibility: greater than 7 mile(s):0
Temperature: 39 F (4 C)
Dew Point: 35 F (2 C)
Relative Humidity: 86%
Pressure (altimeter): 30.15 in. Hg (1021 hPa)
ob: EFSI 232320Z AUTO VRB02KT CAVOK 04/02 Q1021
cycle: 23

Station Type Date Time Source
EFSI TAF 2012/03/06 09:42 UTC NOAA

TAF EFSI 060830Z 0609/0621 12003KT CAVOK


Example: see airport list